Abbey Dell, Indiana
Current Conditions -  °F | °C
As of 10:55 AM on Friday 24 Oct 2014 (Local Time) from KDCY Reporting Station
Overcast Overcast  
Wind Chill: 11°   Ceiling: 3200
Heat Index: 11°   Visibility: 10mi
Dew Point:   Wind: 3mph
Humidity: 85%   Direction: 170°S
Pressure: 30.13"   Gusts: NA
Location:  38.6165°N, 86.6265°W
Report Text: KDCY 241455Z AUTO 17003KT 10SM OVC032 11/09 A3013 RMK AO2 T01090085
Loading
Personal Weather Stations






























Interactive Weather Map
Tropical Storm Tracking
New forecast layout! Learn more

10-Day Weather Forecast

Advertisements
Track Severe Weather on mobile